Woodhall Spa, United Kingdom
Current Conditions -  °F | °C
As of 2:50 PM on Friday 28 Nov 2014 (Local Time) from EGXC Reporting Station
Haze Haze  
Wind Chill: 50°   Ceiling: 500
Heat Index: 50°   Visibility: 3mi
Dew Point: 48°   Wind: 10mph
Humidity: 94%   Direction: 80°E
Pressure: 29.71"   Gusts: NA
Location:  53.15°N, 0.21°W
Report Text: EGXC 281450Z 08009KT 5000 HZ OVC005 10/09 Q1006 YLO1 NOSIG
Loading
Personal Weather Stations






























Interactive Weather Map New forecast layout! Learn more

10-Day Weather Forecast

Advertisements
Track Severe Weather on mobile